createdAt,value
2023-01-07T00:01:24.555Z,3.83
2023-01-07T00:03:53.886Z,3.20
2023-01-07T00:06:24.147Z,4.53
2023-01-07T00:08:55.179Z,5.57
2023-01-07T00:11:28.115Z,4.00
2023-01-07T00:13:57.548Z,3.27
2023-01-07T00:16:28.290Z,3.40
2023-01-07T00:19:00.540Z,3.30
2023-01-07T00:21:29.821Z,3.87
2023-01-07T00:23:59.195Z,3.93
2023-01-07T00:26:31.493Z,3.03
2023-01-07T00:29:00.066Z,3.20
2023-01-07T00:31:29.578Z,2.93
2023-01-07T00:34:08.938Z,3.67
2023-01-07T00:36:39.838Z,3.03
2023-01-07T00:39:10.212Z,3.33
2023-01-07T00:41:39.903Z,3.07
2023-01-07T00:44:08.796Z,5.20
2023-01-07T00:46:36.790Z,3.00
2023-01-07T00:49:04.805Z,2.63
2023-01-07T00:51:32.791Z,2.80
2023-01-07T00:54:00.760Z,2.77
2023-01-07T00:56:28.972Z,2.57
2023-01-07T00:58:58.216Z,3.17
2023-01-07T01:01:26.456Z,2.83
2023-01-07T01:03:54.456Z,3.10
2023-01-07T01:06:22.478Z,3.40
2023-01-07T01:08:50.412Z,2.70
2023-01-07T01:11:18.733Z,4.17
2023-01-07T01:13:47.803Z,3.23
2023-01-07T01:16:19.263Z,2.37
2023-01-07T01:18:47.549Z,2.73
2023-01-07T01:21:17.239Z,2.83
2023-01-07T01:23:45.272Z,3.13
2023-01-07T01:26:15.376Z,3.20
2023-01-07T01:28:44.595Z,3.07
2023-01-07T01:31:12.625Z,2.60
2023-01-07T01:33:42.088Z,5.07
2023-01-07T01:36:13.171Z,2.40
2023-01-07T01:38:41.526Z,3.63
2023-01-07T01:41:09.891Z,3.20
2023-01-07T01:43:39.835Z,2.53
2023-01-07T01:46:13.874Z,3.40
2023-01-07T01:48:47.510Z,2.30
2023-01-07T01:51:16.723Z,4.00
2023-01-07T01:53:45.529Z,3.13
2023-01-07T01:56:17.309Z,2.10
2023-01-07T01:58:49.530Z,2.70
2023-01-07T02:01:17.753Z,2.50
2023-01-07T02:03:49.403Z,2.30
2023-01-07T02:06:22.351Z,2.57
2023-01-07T02:08:50.943Z,2.20
2023-01-07T02:11:30.220Z,2.67
2023-01-07T02:14:13.217Z,1.90
2023-01-07T02:16:49.621Z,4.60
2023-01-07T02:20:02.187Z,2.50
2023-01-07T02:22:51.138Z,2.53
2023-01-07T02:25:43.134Z,2.50
2023-01-07T02:28:35.671Z,3.10
2023-01-07T02:31:24.732Z,3.30
2023-01-07T02:33:59.499Z,3.10
2023-01-07T02:36:48.604Z,2.77
2023-01-07T02:39:44.580Z,2.00
2023-01-07T02:42:23.426Z,2.50
2023-01-07T02:44:59.900Z,2.10
2023-01-07T02:47:30.602Z,2.57
2023-01-07T02:49:59.967Z,2.33
2023-01-07T02:52:30.252Z,2.80
2023-01-07T02:55:01.018Z,2.47
2023-01-07T02:57:44.973Z,2.07
2023-01-07T03:00:21.716Z,2.80
2023-01-07T03:03:21.890Z,5.73
2023-01-07T03:06:06.750Z,3.10
2023-01-07T03:08:46.395Z,2.23
2023-01-07T03:11:14.844Z,4.43
2023-01-07T03:13:49.245Z,2.70
2023-01-07T03:16:21.500Z,2.40
2023-01-07T03:18:55.964Z,2.10
2023-01-07T03:21:28.143Z,1.97
2023-01-07T03:23:58.151Z,3.00
2023-01-07T03:26:31.309Z,2.83
2023-01-07T03:29:01.379Z,1.50
2023-01-07T03:31:30.757Z,2.50
2023-01-07T03:34:04.179Z,2.40
2023-01-07T03:36:37.323Z,2.47
2023-01-07T03:39:07.277Z,1.90
2023-01-07T03:41:58.094Z,2.60
2023-01-07T03:44:26.043Z,2.00
2023-01-07T03:46:54.694Z,2.20
2023-01-07T03:49:22.721Z,3.30
2023-01-07T03:51:54.379Z,3.60
2023-01-07T03:54:23.415Z,2.33
2023-01-07T03:56:51.402Z,2.20
2023-01-07T03:59:19.477Z,2.27
2023-01-07T04:01:47.602Z,2.50
2023-01-07T04:04:15.970Z,2.47
2023-01-07T04:06:43.950Z,2.73
2023-01-07T04:09:15.029Z,2.30
2023-01-07T04:11:43.214Z,2.70
2023-01-07T04:14:11.370Z,2.40
2023-01-07T04:16:39.345Z,3.23
2023-01-07T04:19:07.364Z,2.57
2023-01-07T04:21:35.361Z,3.40
2023-01-07T04:24:03.359Z,2.53
2023-01-07T04:26:33.789Z,2.43
2023-01-07T04:29:01.739Z,2.13
2023-01-07T04:31:32.347Z,2.33
2023-01-07T04:34:00.342Z,3.07
2023-01-07T04:36:28.337Z,3.37
2023-01-07T04:38:56.307Z,3.90
2023-01-07T04:41:24.448Z,3.20
2023-01-07T04:43:53.705Z,3.20
2023-01-07T04:46:21.773Z,2.67
2023-01-07T04:48:49.763Z,4.90
2023-01-07T04:51:20.287Z,3.40
2023-01-07T04:53:48.464Z,5.27
2023-01-07T04:56:16.565Z,3.43
2023-01-07T04:58:44.845Z,2.67
2023-01-07T05:01:14.242Z,2.80
2023-01-07T05:03:42.315Z,2.33
2023-01-07T05:06:10.451Z,3.17
2023-01-07T05:08:38.375Z,2.83
2023-01-07T05:11:06.967Z,4.47
2023-01-07T05:13:36.205Z,4.63
2023-01-07T05:16:04.448Z,5.10
2023-01-07T05:18:33.751Z,5.10
2023-01-07T05:21:01.835Z,7.97
2023-01-07T05:23:29.740Z,4.27
2023-01-07T05:26:00.474Z,4.43
2023-01-07T05:28:28.484Z,3.93
2023-01-07T05:30:56.470Z,4.73
2023-01-07T05:33:24.397Z,3.90
2023-01-07T05:35:53.630Z,4.77
2023-01-07T05:38:21.807Z,3.93
2023-01-07T05:40:50.335Z,4.77
2023-01-07T05:43:18.667Z,4.67
2023-01-07T05:45:47.003Z,4.00
2023-01-07T05:48:15.548Z,5.00
2023-01-07T05:50:44.221Z,4.77
2023-01-07T05:53:13.782Z,4.73
2023-01-07T05:55:41.715Z,4.43
2023-01-07T05:58:10.213Z,6.03
2023-01-07T06:00:38.569Z,4.87
2023-01-07T06:03:07.126Z,4.70
2023-01-07T06:05:35.117Z,4.90
2023-01-07T06:08:03.070Z,6.40
2023-01-07T06:10:32.592Z,6.00
2023-01-07T06:13:02.070Z,4.87
2023-01-07T06:15:30.139Z,6.57
2023-01-07T06:17:58.505Z,4.60
2023-01-07T06:20:26.591Z,5.63
2023-01-07T06:22:54.996Z,6.80
2023-01-07T06:25:22.913Z,5.63
2023-01-07T06:27:52.253Z,4.80
2023-01-07T06:30:20.295Z,5.47
2023-01-07T06:32:48.168Z,5.67
2023-01-07T06:35:16.123Z,5.07
2023-01-07T06:37:44.131Z,4.13
2023-01-07T06:40:12.824Z,4.97
2023-01-07T06:42:41.086Z,6.07
2023-01-07T06:45:11.475Z,5.13
2023-01-07T06:47:39.597Z,5.17
2023-01-07T06:50:08.210Z,5.77
2023-01-07T06:52:36.132Z,5.23
2023-01-07T06:55:04.434Z,6.33
2023-01-07T06:57:32.643Z,6.80
2023-01-07T07:00:00.579Z,6.20
2023-01-07T07:02:32.595Z,8.00
2023-01-07T07:05:01.001Z,6.27
2023-01-07T07:07:29.160Z,5.63
2023-01-07T07:09:57.101Z,5.77
2023-01-07T07:12:25.182Z,4.80
2023-01-07T07:14:53.216Z,4.77
2023-01-07T07:17:21.266Z,5.67
2023-01-07T07:19:50.715Z,6.97
2023-01-07T07:22:18.677Z,4.53
2023-01-07T07:24:46.631Z,8.67
2023-01-07T07:27:14.785Z,5.97
2023-01-07T07:29:42.741Z,5.00
2023-01-07T07:32:10.782Z,6.33
2023-01-07T07:34:38.688Z,5.10
2023-01-07T07:37:08.150Z,7.83
2023-01-07T07:39:36.253Z,4.70
2023-01-07T07:42:04.780Z,5.10
2023-01-07T07:44:32.846Z,4.50
2023-01-07T07:47:00.926Z,4.90
2023-01-07T07:49:29.054Z,5.83
2023-01-07T07:51:57.160Z,5.30
2023-01-07T07:54:28.128Z,4.23
2023-01-07T07:56:56.163Z,5.60
2023-01-07T07:59:24.164Z,5.40
2023-01-07T08:01:52.218Z,5.53
2023-01-07T08:04:20.222Z,6.03
2023-01-07T08:06:48.276Z,5.30
2023-01-07T08:09:18.627Z,5.43
2023-01-07T08:11:47.942Z,4.80
2023-01-07T08:14:16.121Z,5.93
2023-01-07T08:16:44.105Z,3.97
2023-01-07T08:19:12.955Z,6.83
2023-01-07T08:21:41.045Z,4.70
2023-01-07T08:24:11.208Z,5.60
2023-01-07T08:26:39.223Z,5.20
2023-01-07T08:29:08.837Z,7.53
2023-01-07T08:31:36.964Z,5.27
2023-01-07T08:34:04.963Z,5.70
2023-01-07T08:36:32.839Z,6.37
2023-01-07T08:39:00.760Z,5.93
2023-01-07T08:41:28.732Z,5.10
2023-01-07T08:43:56.637Z,5.07
2023-01-07T08:46:26.006Z,6.93
2023-01-07T08:48:54.139Z,5.73
2023-01-07T08:51:22.299Z,8.03
2023-01-07T08:53:50.432Z,9.83
2023-01-07T08:56:18.360Z,6.13
2023-01-07T08:58:46.367Z,8.37
2023-01-07T09:01:14.541Z,7.67
2023-01-07T09:03:43.983Z,5.07
2023-01-07T09:06:15.097Z,7.77
2023-01-07T09:08:43.043Z,6.67
2023-01-07T09:11:11.121Z,5.97
2023-01-07T09:13:39.044Z,6.37
2023-01-07T09:16:07.918Z,7.17
2023-01-07T09:18:35.884Z,7.17
2023-01-07T09:21:05.220Z,5.93
2023-01-07T09:23:33.105Z,7.57
2023-01-07T09:26:01.068Z,6.23
2023-01-07T09:28:30.209Z,6.03
2023-01-07T09:31:00.398Z,8.63
2023-01-07T09:33:28.516Z,5.53
2023-01-07T09:35:56.576Z,6.90
2023-01-07T09:38:28.632Z,6.57
2023-01-07T09:40:57.784Z,5.33
2023-01-07T09:43:59.759Z,5.00
2023-01-07T09:46:22.341Z,7.80
2023-01-07T09:48:56.739Z,6.40
2023-01-07T09:51:30.311Z,7.10
2023-01-07T09:54:03.222Z,8.40
2023-01-07T09:56:33.563Z,5.00
2023-01-07T09:59:02.702Z,7.50
2023-01-07T10:01:39.784Z,5.90
2023-01-07T10:04:24.175Z,6.60
2023-01-07T10:07:00.154Z,7.33
2023-01-07T10:09:39.064Z,4.80
2023-01-07T10:12:16.634Z,6.40
2023-01-07T10:15:06.288Z,5.97
2023-01-07T10:17:57.598Z,5.13
2023-01-07T10:20:34.362Z,5.13
2023-01-07T10:23:05.587Z,6.77
2023-01-07T10:25:42.094Z,7.30
2023-01-07T10:28:15.272Z,4.17
2023-01-07T10:30:48.161Z,5.13
2023-01-07T10:33:25.031Z,5.27
2023-01-07T10:36:01.031Z,4.67
2023-01-07T10:38:34.197Z,5.90
2023-01-07T10:41:08.513Z,3.80
2023-01-07T10:43:51.240Z,3.60
2023-01-07T10:46:32.164Z,4.80
2023-01-07T10:49:17.526Z,5.50
2023-01-07T10:52:07.259Z,3.50
2023-01-07T10:54:59.116Z,5.87
2023-01-07T10:57:31.515Z,5.10
2023-01-07T11:00:03.692Z,2.90
2023-01-07T11:02:32.256Z,6.97
2023-01-07T11:05:00.943Z,3.27
2023-01-07T11:07:34.125Z,2.90
2023-01-07T11:10:05.385Z,6.23
2023-01-07T11:12:41.035Z,2.40
2023-01-07T11:15:17.085Z,2.53
2023-01-07T11:17:49.982Z,3.83
2023-01-07T11:20:43.483Z,2.90
2023-01-07T11:23:29.221Z,2.53
2023-01-07T11:26:09.209Z,2.03
2023-01-07T11:28:41.899Z,4.43
2023-01-07T11:31:10.408Z,3.20
2023-01-07T11:34:02.206Z,3.07
2023-01-07T11:36:53.502Z,2.23
2023-01-07T11:42:35.771Z,1.83
2023-01-07T11:45:16.188Z,1.93
2023-01-07T11:47:51.250Z,2.30
2023-01-07T11:50:28.219Z,1.60
2023-01-07T11:53:01.173Z,4.47
2023-01-07T11:55:30.115Z,3.27
2023-01-07T11:58:28.637Z,1.50
2023-01-07T12:01:05.214Z,2.27
2023-01-07T12:03:33.301Z,2.13
2023-01-07T12:06:08.397Z,3.13
2023-01-07T12:08:36.731Z,2.50
2023-01-07T12:11:09.301Z,1.63
2023-01-07T12:13:41.095Z,2.90
2023-01-07T12:16:11.161Z,3.00
2023-01-07T12:18:57.447Z,4.37
2023-01-07T12:21:36.166Z,2.97
2023-01-07T12:24:28.213Z,3.53
2023-01-07T12:27:03.136Z,2.90
2023-01-07T12:29:42.194Z,3.27
2023-01-07T12:32:24.711Z,2.30
2023-01-07T12:34:58.817Z,2.43
2023-01-07T12:37:46.582Z,2.93
2023-01-07T12:40:24.744Z,4.57
2023-01-07T12:43:00.264Z,2.47
2023-01-07T12:45:32.540Z,5.43
2023-01-07T12:48:28.162Z,2.40
2023-01-07T12:51:18.311Z,3.67
2023-01-07T12:53:57.481Z,3.20
2023-01-07T12:56:32.347Z,2.80
2023-01-07T12:59:05.626Z,3.17
2023-01-07T13:01:39.073Z,4.10
2023-01-07T13:04:17.842Z,3.10
2023-01-07T13:06:52.270Z,3.23
2023-01-07T13:09:28.550Z,2.87
2023-01-07T13:12:40.504Z,2.90
2023-01-07T13:15:16.092Z,3.33
2023-01-07T13:17:44.233Z,3.23
2023-01-07T13:20:18.663Z,2.17
2023-01-07T13:22:50.553Z,2.60
2023-01-07T13:25:32.919Z,3.27
2023-01-07T13:28:25.063Z,3.23
2023-01-07T13:31:08.379Z,2.40
2023-01-07T13:33:46.894Z,2.20
2023-01-07T13:36:26.411Z,2.43
2023-01-07T13:39:21.130Z,5.60
2023-01-07T13:42:02.931Z,2.93
2023-01-07T13:45:06.726Z,3.13
2023-01-07T13:47:48.108Z,2.23
2023-01-07T13:50:26.045Z,3.10
2023-01-07T13:53:01.326Z,2.53
2023-01-07T13:55:34.599Z,2.70
2023-01-07T13:58:03.811Z,3.27
2023-01-07T14:00:44.884Z,2.40
2023-01-07T14:03:44.266Z,3.33
2023-01-07T14:06:46.767Z,3.53
2023-01-07T14:09:34.961Z,2.50
2023-01-07T14:12:35.653Z,3.20
2023-01-07T14:15:55.090Z,3.03
2023-01-07T14:19:08.475Z,2.67
2023-01-07T14:21:53.525Z,2.70
2023-01-07T14:24:48.887Z,2.93
2023-01-07T14:27:35.227Z,4.33
2023-01-07T14:30:17.221Z,2.53
2023-01-07T14:32:48.667Z,3.77
2023-01-07T14:35:31.787Z,4.10
2023-01-07T14:38:00.222Z,3.23
2023-01-07T14:41:07.838Z,4.67
2023-01-07T14:44:03.190Z,3.43
2023-01-07T14:46:51.535Z,4.43
2023-01-07T14:50:04.558Z,5.67
2023-01-07T14:53:07.655Z,3.93
2023-01-07T14:56:08.830Z,3.40
2023-01-07T14:58:45.084Z,2.67
2023-01-07T15:01:41.360Z,4.53
2023-01-07T15:04:35.269Z,3.17
2023-01-07T15:07:05.017Z,2.20
2023-01-07T15:09:57.986Z,3.30
2023-01-07T15:12:51.009Z,3.60
2023-01-07T15:15:42.195Z,3.53
2023-01-07T15:18:12.187Z,3.13
2023-01-07T15:20:52.488Z,2.30
2023-01-07T15:23:28.143Z,3.30
2023-01-07T15:26:02.479Z,6.40
2023-01-07T15:28:42.166Z,4.53
2023-01-07T15:31:17.960Z,5.00
2023-01-07T15:34:07.634Z,3.60
2023-01-07T15:36:40.923Z,4.70
2023-01-07T15:39:18.002Z,3.63
2023-01-07T15:41:46.732Z,3.87
2023-01-07T15:44:21.332Z,5.43
2023-01-07T15:46:49.445Z,4.07
2023-01-07T15:49:23.824Z,4.57
2023-01-07T15:51:54.707Z,5.10
2023-01-07T15:54:30.391Z,4.37
2023-01-07T15:57:03.582Z,3.63
2023-01-07T15:59:34.970Z,2.60
2023-01-07T16:02:14.856Z,4.60
2023-01-07T16:04:44.125Z,4.13
2023-01-07T16:07:27.038Z,3.87
2023-01-07T16:09:55.820Z,4.70
2023-01-07T16:12:33.445Z,4.80
2023-01-07T16:15:05.110Z,4.57
2023-01-07T16:17:33.399Z,6.80
2023-01-07T16:20:21.365Z,8.50
2023-01-07T16:22:49.696Z,5.03
2023-01-07T16:25:24.188Z,4.13
2023-01-07T16:27:52.454Z,4.00
2023-01-07T16:30:24.338Z,4.37
2023-01-07T16:32:54.700Z,3.67
2023-01-07T16:35:29.888Z,4.10
2023-01-07T16:37:58.045Z,4.10
2023-01-07T16:40:32.085Z,4.07
2023-01-07T16:43:00.080Z,4.10
2023-01-07T16:45:32.385Z,6.47
2023-01-07T16:48:19.963Z,5.37
2023-01-07T16:50:49.806Z,5.60
2023-01-07T16:53:29.902Z,4.73
2023-01-07T16:56:21.744Z,4.10
2023-01-07T16:58:52.804Z,4.00
2023-01-07T17:01:30.985Z,5.67
2023-01-07T17:04:00.852Z,4.83
2023-01-07T17:06:37.585Z,6.23
2023-01-07T17:09:06.266Z,4.83
2023-01-07T17:11:38.416Z,4.80
2023-01-07T17:14:45.214Z,5.33
2023-01-07T17:17:30.787Z,5.20
2023-01-07T17:20:15.274Z,6.73
2023-01-07T17:22:47.233Z,7.07
2023-01-07T17:25:16.467Z,8.00
2023-01-07T17:27:49.752Z,8.23
2023-01-07T17:30:20.425Z,10.03
2023-01-07T17:32:51.203Z,8.90
2023-01-07T17:35:21.082Z,9.90
2023-01-07T17:37:49.359Z,14.30
2023-01-07T17:40:18.410Z,13.60
2023-01-07T17:43:04.842Z,12.63
2023-01-07T17:45:33.294Z,12.23
2023-01-07T17:48:02.598Z,11.03
2023-01-07T17:50:37.322Z,9.77
2023-01-07T17:53:05.886Z,8.07
2023-01-07T17:55:36.756Z,8.03
2023-01-07T17:58:05.786Z,9.17
2023-01-07T18:00:36.608Z,9.37
2023-01-07T18:03:07.126Z,9.63
2023-01-07T18:05:35.046Z,10.30
2023-01-07T18:08:03.001Z,8.47
2023-01-07T18:10:51.980Z,7.20
2023-01-07T18:13:22.109Z,8.67
2023-01-07T18:15:55.765Z,10.40
2023-01-07T18:18:35.841Z,16.20
2023-01-07T18:21:03.872Z,16.63
2023-01-07T18:23:31.805Z,13.43
2023-01-07T18:25:59.812Z,10.00
2023-01-07T18:28:28.037Z,10.13
2023-01-07T18:30:56.070Z,10.53
2023-01-07T18:33:25.451Z,12.93
2023-01-07T18:35:53.545Z,12.17
2023-01-07T18:38:21.609Z,12.30
2023-01-07T18:40:49.869Z,12.43
2023-01-07T18:43:19.820Z,13.67
2023-01-07T18:45:56.150Z,14.10
2023-01-07T18:48:25.910Z,13.07
2023-01-07T18:50:54.023Z,14.47
2023-01-07T18:53:26.544Z,13.63
2023-01-07T18:56:02.013Z,11.27
2023-01-07T18:58:30.058Z,13.30
2023-01-07T19:01:03.381Z,12.77
2023-01-07T19:03:32.860Z,12.30
2023-01-07T19:06:01.039Z,18.13
2023-01-07T19:08:29.393Z,11.93
2023-01-07T19:10:57.495Z,10.63
2023-01-07T19:13:25.527Z,13.47
2023-01-07T19:15:53.501Z,10.27
2023-01-07T19:18:23.573Z,11.80
2023-01-07T19:20:52.922Z,11.83
2023-01-07T19:23:21.140Z,10.93
2023-01-07T19:25:58.333Z,11.27
2023-01-07T19:28:40.517Z,12.63
2023-01-07T19:31:10.759Z,12.80
2023-01-07T19:33:39.517Z,10.73
2023-01-07T19:36:11.427Z,10.63
2023-01-07T19:38:40.505Z,12.03
2023-01-07T19:41:09.722Z,13.67
2023-01-07T19:43:44.642Z,11.13
2023-01-07T19:46:14.375Z,10.93
2023-01-07T19:48:43.285Z,11.30
2023-01-07T19:51:12.727Z,57.60
2023-01-07T19:53:40.934Z,22.10
2023-01-07T19:56:10.789Z,15.23
2023-01-07T19:58:39.329Z,15.00
2023-01-07T20:01:09.529Z,13.30
2023-01-07T20:03:38.478Z,15.47
2023-01-07T20:06:08.398Z,14.60
2023-01-07T20:08:38.852Z,14.67
2023-01-07T20:11:07.291Z,14.60
2023-01-07T20:13:37.393Z,15.10
2023-01-07T20:16:52.915Z,25.17
2023-01-07T20:19:23.495Z,12.73
2023-01-07T20:21:51.767Z,13.83
2023-01-07T20:24:29.820Z,13.23
2023-01-07T20:27:00.248Z,15.33
2023-01-07T20:29:28.579Z,22.03
2023-01-07T20:31:56.894Z,20.53
2023-01-07T20:34:25.388Z,16.90
2023-01-07T20:36:54.099Z,12.93
2023-01-07T20:39:23.576Z,12.43
2023-01-07T20:41:54.776Z,11.63
2023-01-07T20:44:23.075Z,12.70
2023-01-07T20:46:53.959Z,12.97
2023-01-07T20:49:23.460Z,13.40
2023-01-07T20:51:53.258Z,13.50
2023-01-07T20:54:22.050Z,13.20
2023-01-07T20:56:52.031Z,15.50
2023-01-07T20:59:20.293Z,13.00
2023-01-07T21:01:48.564Z,12.97
2023-01-07T21:04:16.692Z,15.80
2023-01-07T21:06:44.767Z,14.70
2023-01-07T21:09:13.040Z,14.07
2023-01-07T21:11:43.139Z,13.80
2023-01-07T21:14:12.573Z,15.23
2023-01-07T21:16:40.945Z,15.90
2023-01-07T21:19:09.126Z,16.07
2023-01-07T21:21:37.444Z,13.70
2023-01-07T21:24:05.728Z,12.60
2023-01-07T21:26:34.448Z,13.90
2023-01-07T21:29:02.487Z,13.67
2023-01-07T21:31:31.820Z,13.50
2023-01-07T21:33:59.983Z,12.67
2023-01-07T21:36:29.121Z,12.37
2023-01-07T21:38:59.248Z,13.53
2023-01-07T21:41:28.659Z,12.40
2023-01-07T21:43:57.998Z,14.37
2023-01-07T21:46:27.093Z,11.10
2023-01-07T21:48:56.873Z,12.67
2023-01-07T21:51:26.823Z,12.63
2023-01-07T21:54:01.255Z,10.83
2023-01-07T21:56:33.008Z,11.43
2023-01-07T21:59:01.642Z,11.27
2023-01-07T22:01:42.535Z,10.70
2023-01-07T22:04:12.281Z,11.13
2023-01-07T22:06:43.652Z,9.77
2023-01-07T22:09:15.466Z,12.00
2023-01-07T22:11:44.189Z,11.80
2023-01-07T22:14:15.120Z,13.73
2023-01-07T22:16:43.817Z,13.83
2023-01-07T22:19:14.441Z,10.80
2023-01-07T22:21:43.662Z,15.77
2023-01-07T22:24:11.627Z,11.83
2023-01-07T22:26:41.151Z,12.23
2023-01-07T22:29:09.537Z,9.93
2023-01-07T22:31:38.406Z,12.13
2023-01-07T22:34:07.746Z,10.03
2023-01-07T22:36:45.261Z,11.40
2023-01-07T22:39:25.751Z,11.67
2023-01-07T22:41:59.174Z,12.93
2023-01-07T22:44:30.252Z,14.53
2023-01-07T22:47:00.565Z,13.97
2023-01-07T22:49:31.763Z,13.43
2023-01-07T22:52:04.302Z,12.33
2023-01-07T22:54:34.342Z,11.53
2023-01-07T22:57:02.421Z,12.77
2023-01-07T22:59:30.577Z,11.87
2023-01-07T23:02:01.395Z,11.73
2023-01-07T23:04:29.918Z,12.67
2023-01-07T23:06:57.956Z,13.00
2023-01-07T23:09:27.705Z,12.00
2023-01-07T23:11:59.476Z,14.83
2023-01-07T23:14:28.842Z,12.03
2023-01-07T23:17:00.609Z,14.10
2023-01-07T23:19:31.316Z,15.27
2023-01-07T23:22:03.485Z,11.70
2023-01-07T23:24:32.865Z,13.90
2023-01-07T23:27:02.532Z,13.07
2023-01-07T23:29:30.547Z,14.70
2023-01-07T23:32:00.765Z,12.93
2023-01-07T23:34:28.752Z,12.30
2023-01-07T23:36:56.784Z,14.43
2023-01-07T23:39:24.659Z,14.37
2023-01-07T23:41:53.918Z,17.13
2023-01-07T23:44:21.875Z,14.57
2023-01-07T23:46:50.079Z,16.23
2023-01-07T23:49:23.860Z,12.13
2023-01-07T23:51:51.925Z,14.73
2023-01-07T23:54:20.274Z,14.57
2023-01-07T23:56:50.400Z,13.43
2023-01-07T23:59:20.296Z,14.80
